NWWM

Nouméa Magenta Airport

Nouméa, New Caledonia
TAF NWWM 201700Z 2018/2118 13012KT 9999 SCT025 BKN040 PROB30 TEMPO 2018/2106 4000 SHRA FEW020CB
Issued Valid From Valid To
Apr-20 @ 17:00 UTC
(2 hours ago)
Apr-20 @ 18:00 UTC
(35 minutes ago)
Apr-21 @ 18:00 UTC
(in 23 hours)
Apr-20 @ 18:00 to Apr-21 @ 18:00
TAF NWWM 201700Z 2018/2118 13012KT 9999 SCT025 BKN040
Wind Visibility Clouds
130° at 12 knots 10,000+ meters
  • Scattered at 2,500' AGL
  • Broken at 4,000' AGL
Temporary  (Probability 30%) Apr-20 @ 18:00 to Apr-21 @ 06:00
PROB30 TEMPO 2018/2106 4000 SHRA FEW020CB
Visibility Clouds Conditions
4,007 meters
  • Few at 2,000' AGL
  • Rain
TAF NWWM 201700Z 2018/2118 13012KT 9999 SCT025 BKN040 PROB30 TEMPO 2018/2106 4000 SHRA FEW020CB
Issued Apr-20 @ 17:00 UTC
(2 hours ago)
Valid From Apr-20 @ 18:00 UTC
(35 minutes ago)
Valid To Apr-21 @ 18:00 UTC
(in 23 hours)
Apr-20 @ 18:00 - Apr-21 @ 18:00
Wind Visibility
130° at 12 knots 10,000+ meters
Clouds
  • Scattered at 2,500' AGL
  • Broken at 4,000' AGL
Probability 30% Temporary Apr-20 @ 18:00 - Apr-21 @ 06:00
Clouds
  • Few at 2,000' AGL
Conditions
  • Rain